Airfield :







YOU CAN JOIN US ON...

 
LOGIN :

Register | Disclaimer

   EN    FR    IT 

 









Legend :    VFR   Marginal VFR   IFR   Intensive IFR   Very Intensive IFR
Visi :
Ceiling :
>= 8 km
>= 3000ft
5 to 8 km
1000 to 3000 ft
1500m to 5 km
500 to 1000 ft
800 to 1500m
200 to 500 ft
< 800m
< 200 ft
Symbols :   Thunderstorms  Fog  Heavy snow  Heavy precipitations  Wind > 20 kt






- Airport Elevation : 203 ft
- IATA code : YQY


CYQY - Sydney

CURRENT METAR :
  • 292300Z 18006KT 150V220 15SM FEW030 FEW210 17/11 A2978 RMK CU1CI1 SLP087 DENSITY ALT 700FT

EXPIRED METARs :
  • 292200Z 19007KT 150V220 15SM FEW025 FEW240 20/12 A2977 RMK CU1CI1 SLP083 DENSITY ALT 1100FT
  • 292100Z 18010G19KT 160V220 15SM FEW025 FEW240 21/13 A2976 RMK CU1CI1 SLP080 DENSITY ALT 1200FT
  • 292000Z 15010G16KT 130V200 15SM FEW025 FEW220 22/14 A2976 RMK CU1CI1 SLP079 DENSITY ALT 1300FT
  • 291900Z 17011G17KT 120V210 15SM FEW030 SCT250 23/15 A2975 RMK CU1CI3 SLP077 DENSITY ALT 1400FT

TAF TAF CYQY
Valid from the 30 at 00:00 until the 30 at 12:00 UTC


292340Z 3000/3012 18008KT P6SM FEW030 SCT220
FM300300 22008KT P6SM SCT012
TEMPO 3003/3012 SCT008 BKN012
BECMG 3003/3005 06005KT RMK NXT FCST BY 300600Z
CZQM FIR / North America



MET'MAP, your aeronautical weather chart ! - Copyright ORBIFLY December 2007 - Disclaimer

ORBIFLY MET'MAP TEAM :

Programming & Development : Alexandra Zaïnal
Original concept : Baudouin d'Aumeries
Technical & hardware support : Manuel Goepfert
Assistance : Marc-Olivier Méhu




SOURCES & CREDITS :

   NOAA